Terminal Aerodrome Forecast
Issued by NWS

Home | Current Version | Previous Version | Text Only | Print | Product List | Glossary On
Versions: 1 2 3 4 5 6 7 8 9 10 11 12 13 14 15 16 17
000
FTUS46 KMFR 220520
TAFLMT
TAF
KLMT 220520Z 2206/2306 34005KT P6SM BKN060
     FM221300 02004KT P6SM SCT020
     FM221600 33007KT P6SM SCT040=

USA.gov is the U.S. government's official web portal to all federal, state and local government web resources and services.